Time;durP1;ratioP1;P1;durP2;ratioP2;P2;SDS_P1;SDS_P2;PMS_P1;PMS_P2;Temp;Humidity;BMP_temperature;BMP_pressure;BME280_temperature;BME280_humidity;BME280_pressure;Samples;Min_cycle;Max_cycle;Signal;HPM_P1;HPM_P2
2023/07/22 00:00:40;;;;;;;13.67;7.10;;;;;;;-145.18;100.00;46648.69;5069932;28;20032;-66
2023/07/22 00:03:05;;;;;;;13.43;7.87;;;;;;;-145.18;100.00;46644.78;5068832;28;20036;-66
2023/07/22 00:05:31;;;;;;;12.90;7.53;;;;;;;-145.18;100.00;46652.59;5069927;28;20085;-66
2023/07/22 00:07:56;;;;;;;13.50;7.97;;;;;;;-145.18;100.00;46646.72;5070477;28;20097;-66
2023/07/22 00:10:22;;;;;;;15.30;7.83;;;;;;;-145.18;100.00;46652.59;5069297;28;20378;-66
2023/07/22 00:12:47;;;;;;;14.27;8.17;;;;;;;-145.18;100.00;46656.50;5069319;28;20400;-66
2023/07/22 00:15:12;;;;;;;15.27;8.93;;;;;;;-145.18;100.00;46650.63;5071624;28;20035;-66
2023/07/22 00:17:40;;;;;;;15.00;8.53;;;;;;;-145.18;100.00;46656.50;5074856;28;20396;-66
2023/07/22 00:20:06;;;;;;;16.03;8.00;;;;;;;-145.18;100.00;46648.69;5074092;28;20025;-66
2023/07/22 00:22:32;;;;;;;13.90;7.83;;;;;;;-145.18;100.00;46654.53;5074326;28;20387;-66
2023/07/22 00:25:00;;;;;;;18.93;9.33;;;;;;;-145.18;100.00;46650.63;5074561;28;20028;-66
2023/07/22 00:27:26;;;;;;;14.30;8.00;;;;;;;-145.18;100.00;46664.31;5074130;28;20052;-66
2023/07/22 00:29:51;;;;;;;16.33;9.37;;;;;;;-145.18;100.00;46662.34;5073306;28;20080;-66
2023/07/22 00:32:17;;;;;;;16.93;9.37;;;;;;;-145.18;100.00;46654.53;5073855;28;20046;-66
2023/07/22 00:34:42;;;;;;;16.50;9.30;;;;;;;-145.18;100.00;46654.53;5073214;28;20028;-66
2023/07/22 00:37:08;;;;;;;15.00;8.67;;;;;;;-145.18;100.00;46654.53;5073609;28;20032;-66
2023/07/22 00:39:33;;;;;;;20.40;9.63;;;;;;;-145.18;100.00;46662.34;5073613;28;20028;-66
2023/07/22 00:41:59;;;;;;;16.97;9.33;;;;;;;-145.18;100.00;46654.53;5073921;28;20032;-66
2023/07/22 00:44:25;;;;;;;17.77;9.03;;;;;;;-145.18;100.00;46654.53;5074134;28;20032;-66
2023/07/22 00:46:56;;;;;;;16.73;9.40;;;;;;;-145.18;100.00;46660.41;5074015;28;20058;-66
2023/07/22 00:49:23;;;;;;;18.57;9.73;;;;;;;-145.18;100.00;46652.59;5073940;28;20037;-66
2023/07/22 00:51:49;;;;;;;18.00;9.00;;;;;;;-145.18;100.00;46652.59;5074019;28;20056;-66
2023/07/22 00:54:14;;;;;;;17.13;8.93;;;;;;;-145.18;100.00;46654.53;5072732;28;20055;-66
2023/07/22 00:56:41;;;;;;;19.20;9.40;;;;;;;-145.18;100.00;46658.44;5073652;28;20082;-66
2023/07/22 00:59:07;;;;;;;18.10;9.67;;;;;;;-145.18;100.00;46658.44;5071732;28;20115;-63
2023/07/22 01:01:32;;;;;;;18.33;9.47;;;;;;;-145.18;100.00;46656.50;5073800;28;20115;-64
2023/07/22 01:03:58;;;;;;;19.90;9.90;;;;;;;-145.18;100.00;46660.41;5073723;28;20033;-63
2023/07/22 01:06:29;;;;;;;23.10;9.60;;;;;;;-145.18;100.00;46652.59;5073758;28;20040;-63
2023/07/22 01:08:54;;;;;;;19.00;8.90;;;;;;;-145.18;100.00;46658.44;5071895;28;20059;-63
2023/07/22 01:11:19;;;;;;;25.77;10.13;;;;;;;-145.18;100.00;46648.69;5073121;28;20845;-63
2023/07/22 01:13:45;;;;;;;18.20;8.77;;;;;;;-145.18;100.00;46660.41;5073372;28;20024;-63
2023/07/22 01:16:10;;;;;;;16.83;9.33;;;;;;;-145.18;100.00;46654.53;5073454;28;20035;-63
2023/07/22 01:18:37;;;;;;;25.40;10.40;;;;;;;-145.18;100.00;46658.44;5073678;28;20117;-64
2023/07/22 01:21:05;;;;;;;19.53;8.93;;;;;;;-145.18;100.00;46660.41;5073826;28;20039;-63
2023/07/22 01:23:31;;;;;;;16.53;9.03;;;;;;;-145.18;100.00;46658.44;5073150;28;20167;-64
2023/07/22 01:25:56;;;;;;;17.93;8.93;;;;;;;-145.18;100.00;46666.25;5072169;28;20116;-63
2023/07/22 01:28:22;;;;;;;17.37;8.47;;;;;;;-145.18;100.00;46656.50;5073460;28;20052;-63
2023/07/22 01:30:48;;;;;;;20.93;9.90;;;;;;;-145.18;100.00;46650.63;5073022;28;20028;-64
2023/07/22 01:33:14;;;;;;;19.43;9.30;;;;;;;-145.18;100.00;46652.59;5072197;28;20131;-63
2023/07/22 01:35:40;;;;;;;18.33;8.77;;;;;;;-145.18;100.00;46652.59;5073231;28;20819;-64
2023/07/22 01:38:08;;;;;;;22.27;9.17;;;;;;;-145.18;100.00;46652.59;5073377;28;20387;-63
2023/07/22 01:40:33;;;;;;;21.10;9.30;;;;;;;-145.18;100.00;46644.78;5072840;28;20423;-64
2023/07/22 01:42:58;;;;;;;16.60;8.67;;;;;;;-145.18;100.00;46652.59;5072952;28;20043;-63
2023/07/22 01:45:24;;;;;;;18.10;9.30;;;;;;;-145.18;100.00;46652.59;5072578;28;20055;-63
2023/07/22 01:47:49;;;;;;;24.13;9.03;;;;;;;-145.18;100.00;46648.69;5073167;28;20115;-63
2023/07/22 01:50:14;;;;;;;22.13;9.30;;;;;;;-145.18;100.00;46656.50;5073045;28;20407;-63
2023/07/22 01:52:40;;;;;;;24.47;9.43;;;;;;;-145.18;100.00;46650.63;5073010;28;20053;-64
2023/07/22 01:55:06;;;;;;;23.97;9.37;;;;;;;-145.18;100.00;46648.69;5072384;28;20404;-63
2023/07/22 01:57:34;;;;;;;22.80;10.40;;;;;;;-145.18;100.00;46654.53;5071891;28;20040;-63
2023/07/22 01:59:59;;;;;;;25.37;9.40;;;;;;;-145.18;100.00;46650.63;5071397;28;20024;-63
2023/07/22 02:02:25;;;;;;;20.20;10.13;;;;;;;-145.18;100.00;46642.81;5072585;28;20050;-63
2023/07/22 02:04:50;;;;;;;21.27;9.80;;;;;;;-145.18;100.00;46648.69;5072703;28;20029;-63
2023/07/22 02:07:15;;;;;;;20.70;9.33;;;;;;;-145.18;100.00;46652.59;5072288;28;20028;-63
2023/07/22 02:09:41;;;;;;;21.40;9.97;;;;;;;-145.18;100.00;46650.63;5071064;28;20059;-63
2023/07/22 02:12:07;;;;;;;18.10;9.43;;;;;;;-145.18;100.00;46650.63;5072434;28;20534;-63
2023/07/22 02:14:33;;;;;;;18.27;9.37;;;;;;;-145.18;100.00;46652.59;5071223;28;20024;-63
2023/07/22 02:16:58;;;;;;;19.63;10.23;;;;;;;-145.18;100.00;46646.72;5072571;28;20502;-64
2023/07/22 02:19:24;;;;;;;25.07;10.47;;;;;;;-145.18;100.00;46648.69;5071950;28;20040;-63
2023/07/22 02:21:49;;;;;;;19.10;9.47;;;;;;;-145.18;100.00;46646.72;5069701;28;20039;-63
2023/07/22 02:24:15;;;;;;;25.13;10.73;;;;;;;-145.18;100.00;46648.69;5072038;28;20033;-63
2023/07/22 02:26:40;;;;;;;21.47;10.07;;;;;;;-145.18;100.00;46642.81;5071703;28;20040;-64
2023/07/22 02:29:05;;;;;;;22.90;10.13;;;;;;;-145.18;100.00;46646.72;5072008;28;20044;-64
2023/07/22 02:31:31;;;;;;;22.53;10.07;;;;;;;-145.18;100.00;46646.72;5071859;28;20033;-63
2023/07/22 02:33:56;;;;;;;20.77;9.70;;;;;;;-145.18;100.00;46652.59;5070458;28;20374;-64
2023/07/22 02:36:22;;;;;;;29.90;10.80;;;;;;;-145.18;100.00;46640.88;5072112;28;20028;-63
2023/07/22 02:38:47;;;;;;;28.20;10.50;;;;;;;-145.18;100.00;46644.78;5071216;28;20129;-63
2023/07/22 02:41:12;;;;;;;25.60;10.23;;;;;;;-145.18;100.00;46640.88;5072093;28;20028;-63
2023/07/22 02:43:38;;;;;;;21.23;10.20;;;;;;;-145.18;100.00;46642.81;5071381;28;20028;-64
2023/07/22 02:46:07;;;;;;;22.30;10.67;;;;;;;-145.18;100.00;46646.72;5070435;28;20115;-63
2023/07/22 02:48:33;;;;;;;23.97;10.50;;;;;;;-145.18;100.00;46640.88;5069318;28;20024;-64
2023/07/22 02:51:09;;;;;;;23.00;10.60;;;;;;;-145.18;100.00;46642.81;5071962;28;20107;-64
2023/07/22 02:53:38;;;;;;;26.13;10.47;;;;;;;-145.18;100.00;46677.97;5069742;28;20442;-64
2023/07/22 02:56:06;;;;;;;21.30;9.90;;;;;;;-145.18;100.00;46638.91;5071901;28;20036;-63
2023/07/22 02:58:33;;;;;;;24.03;10.30;;;;;;;-145.18;100.00;46640.88;5070998;28;20384;-63
2023/07/22 03:00:58;;;;;;;23.03;10.20;;;;;;;-145.18;100.00;46638.91;5071356;28;20024;-64
2023/07/22 03:03:24;;;;;;;21.53;10.10;;;;;;;-145.18;100.00;46638.91;5070168;28;20025;-64
2023/07/22 03:05:49;;;;;;;26.97;10.37;;;;;;;-145.18;100.00;46642.81;5071286;28;20028;-63
2023/07/22 03:08:15;;;;;;;22.83;9.57;;;;;;;-145.18;100.00;46640.88;5071376;28;20045;-64
2023/07/22 03:10:41;;;;;;;24.30;10.23;;;;;;;-145.18;100.00;46638.91;5071333;28;20051;-64
2023/07/22 03:13:07;;;;;;;20.43;9.03;;;;;;;-145.18;100.00;46640.88;5071304;28;20480;-63
2023/07/22 03:15:32;;;;;;;28.87;10.23;;;;;;;-145.18;100.00;46660.41;5068668;28;20029;-64
2023/07/22 03:18:00;;;;;;;24.50;10.93;;;;;;;-145.18;100.00;46636.94;5070572;28;20054;-63
2023/07/22 03:20:26;;;;;;;22.63;10.77;;;;;;;-145.18;100.00;46636.94;5071206;28;20510;-63
2023/07/22 03:22:52;;;;;;;26.13;10.83;;;;;;;-145.18;100.00;46638.91;5071101;28;20029;-63
2023/07/22 03:25:17;;;;;;;20.80;9.83;;;;;;;-145.18;100.00;46636.94;5071095;28;20495;-64
2023/07/22 03:27:44;;;;;;;18.73;9.80;;;;;;;-145.18;100.00;46638.91;5071046;28;20016;-64
2023/07/22 03:30:16;;;;;;;24.10;9.90;;;;;;;-145.18;100.00;46636.94;5070649;28;20138;-64
2023/07/22 03:32:44;;;;;;;19.73;9.57;;;;;;;-145.18;100.00;46636.94;5071007;28;20039;-64
2023/07/22 03:35:10;;;;;;;22.13;10.20;;;;;;;-145.18;100.00;46676.03;5068718;28;20020;-64
2023/07/22 03:37:36;;;;;;;23.97;11.07;;;;;;;-145.18;100.00;46636.94;5070967;28;20059;-64
2023/07/22 03:40:19;;;;;;;21.20;9.47;;;;;;;-145.18;100.00;46638.91;5070700;28;20125;-63
2023/07/22 03:42:48;;;;;;;23.30;9.90;;;;;;;-145.18;100.00;46642.81;5069527;28;20036;-63
2023/07/22 03:45:14;;;;;;;22.17;10.03;;;;;;;-145.18;100.00;46640.88;5069898;28;20029;-63
2023/07/22 03:47:40;;;;;;;22.03;10.40;;;;;;;-145.18;100.00;46640.88;5070723;28;20051;-64
2023/07/22 03:50:06;;;;;;;29.47;10.97;;;;;;;-145.18;100.00;46640.88;5069859;28;20408;-64
2023/07/22 03:52:32;;;;;;;24.03;10.77;;;;;;;-145.18;100.00;46638.91;5070972;28;20047;-63
2023/07/22 03:54:57;;;;;;;22.60;10.73;;;;;;;-145.18;100.00;46642.81;5070823;28;20715;-64
2023/07/22 03:57:27;;;;;;;21.90;10.20;;;;;;;-145.18;100.00;46638.91;5070779;28;20033;-64
2023/07/22 03:59:54;;;;;;;25.37;10.57;;;;;;;-145.18;100.00;46642.81;5070944;28;20028;-64
2023/07/22 04:02:19;;;;;;;21.77;10.93;;;;;;;-145.18;100.00;46640.88;5070319;28;20093;-64
2023/07/22 04:04:44;;;;;;;23.03;10.63;;;;;;;-145.18;100.00;46638.91;5065417;28;20064;-64
2023/07/22 04:07:10;;;;;;;20.10;9.67;;;;;;;-145.18;100.00;46636.94;5069928;28;20460;-64
2023/07/22 04:09:35;;;;;;;22.07;9.57;;;;;;;-145.18;100.00;46640.88;5051686;28;20047;-64
2023/07/22 04:12:01;;;;;;;24.73;10.70;;;;;;;-145.18;100.00;46640.88;5070414;28;20522;-64
2023/07/22 04:14:27;;;;;;;22.00;10.23;;;;;;;-145.18;100.00;46644.78;5051448;28;20056;-64
2023/07/22 04:16:52;;;;;;;21.43;10.60;;;;;;;-145.18;100.00;46644.78;5046482;28;20040;-64
2023/07/22 04:19:18;;;;;;;23.83;11.23;;;;;;;-145.18;100.00;46642.81;5069983;28;20067;-64
2023/07/22 04:21:43;;;;;;;26.47;11.27;;;;;;;-145.18;100.00;46640.88;5063510;28;20031;-63
2023/07/22 04:24:10;;;;;;;23.83;10.47;;;;;;;-145.18;100.00;46638.91;5070330;28;20072;-64
2023/07/22 04:26:35;;;;;;;26.43;11.27;;;;;;;-145.18;100.00;46642.81;5065539;28;20051;-63
2023/07/22 04:29:01;;;;;;;25.83;11.10;;;;;;;-145.18;100.00;46644.78;5067618;28;20040;-64
2023/07/22 04:31:26;;;;;;;23.10;10.37;;;;;;;-145.18;100.00;46646.72;5068205;28;20036;-64
2023/07/22 04:33:52;;;;;;;20.97;11.27;;;;;;;-145.18;100.00;46646.72;5068399;28;20028;-64
2023/07/22 04:36:17;;;;;;;28.47;11.00;;;;;;;-145.18;100.00;46636.94;5068586;28;20348;-64
2023/07/22 04:38:43;;;;;;;27.80;12.13;;;;;;;-145.18;100.00;46644.78;5067279;28;20473;-63
2023/07/22 04:41:08;;;;;;;30.07;10.77;;;;;;;-145.18;100.00;46635.00;5066078;28;20072;-64
2023/07/22 04:43:33;;;;;;;26.90;11.70;;;;;;;-145.18;100.00;46640.88;5067252;28;20747;-64
2023/07/22 04:45:59;;;;;;;26.27;11.10;;;;;;;-145.18;100.00;46644.78;5069025;28;20046;-63
2023/07/22 04:48:25;;;;;;;25.07;11.43;;;;;;;-145.18;100.00;46644.78;5068563;28;20045;-64
2023/07/22 04:50:50;;;;;;;26.83;11.27;;;;;;;-145.18;100.00;46646.72;5069914;28;20052;-64
2023/07/22 04:53:17;;;;;;;24.90;11.60;;;;;;;-145.18;100.00;46638.91;5070040;28;20032;-64
2023/07/22 04:55:43;;;;;;;29.03;12.10;;;;;;;-145.18;100.00;46640.88;5067659;28;20064;-63
2023/07/22 04:58:11;;;;;;;40.53;12.17;;;;;;;-145.18;100.00;46642.81;5067776;28;20075;-63
2023/07/22 05:00:37;;;;;;;28.83;12.03;;;;;;;-145.18;100.00;46642.81;5070889;28;20040;-63
2023/07/22 05:03:04;;;;;;;31.10;13.77;;;;;;;-145.18;100.00;46640.88;5073666;28;20042;-63
2023/07/22 05:05:29;;;;;;;28.80;13.43;;;;;;;-145.18;100.00;46644.78;5073192;28;20064;-63
2023/07/22 05:07:54;;;;;;;35.83;13.57;;;;;;;-145.18;100.00;46644.78;5072143;28;20068;-64
2023/07/22 05:10:20;;;;;;;30.13;14.60;;;;;;;-145.18;100.00;46644.78;5073057;28;20058;-64
2023/07/22 05:12:45;;;;;;;31.43;15.03;;;;;;;-145.18;100.00;46642.81;5071835;28;20604;-62
2023/07/22 05:15:12;;;;;;;33.00;15.57;;;;;;;-145.18;100.00;46642.81;5067703;28;20469;-63
2023/07/22 05:17:37;;;;;;;29.83;15.33;;;;;;;-145.18;100.00;46640.88;5069905;28;20032;-64
2023/07/22 05:20:06;;;;;;;34.20;16.57;;;;;;;-145.18;100.00;46638.91;5072581;28;20039;-63
2023/07/22 05:22:32;;;;;;;40.30;15.63;;;;;;;-145.18;100.00;46644.78;5072102;28;20028;-63
2023/07/22 05:24:57;;;;;;;32.50;15.13;;;;;;;-145.18;100.00;46638.91;5071900;28;20040;-63
2023/07/22 05:27:24;;;;;;;34.83;14.97;;;;;;;-145.18;100.00;46635.00;5072809;28;20028;-64
2023/07/22 05:29:49;;;;;;;36.87;15.23;;;;;;;-145.18;100.00;46638.91;5072813;28;20079;-63
2023/07/22 05:32:15;;;;;;;45.77;16.40;;;;;;;-145.18;100.00;46640.88;5072982;28;20041;-63
2023/07/22 05:34:40;;;;;;;36.87;15.70;;;;;;;-145.18;100.00;46638.91;5073111;28;20036;-63
2023/07/22 05:37:06;;;;;;;32.67;15.23;;;;;;;-145.18;100.00;46642.81;5072215;28;20437;-63
2023/07/22 05:39:31;;;;;;;38.87;16.27;;;;;;;-145.18;100.00;46638.91;5073004;28;20116;-64
2023/07/22 05:41:56;;;;;;;42.43;16.20;;;;;;;-145.18;100.00;46638.91;5071480;28;20090;-63
2023/07/22 05:44:22;;;;;;;36.73;16.07;;;;;;;-145.18;100.00;46636.94;5066858;28;20128;-63
2023/07/22 05:46:47;;;;;;;36.63;15.13;;;;;;;-145.18;100.00;46638.91;5070503;28;20052;-63
2023/07/22 05:49:12;;;;;;;38.87;15.30;;;;;;;-145.18;100.00;46633.06;5069420;28;20116;-63
2023/07/22 05:51:38;;;;;;;37.30;15.60;;;;;;;-145.18;100.00;46633.06;5072126;28;20496;-63
2023/07/22 05:54:04;;;;;;;32.17;15.20;;;;;;;-145.18;100.00;46638.91;5071072;28;20058;-63
2023/07/22 05:56:29;;;;;;;34.57;16.03;;;;;;;-145.18;100.00;46638.91;5071862;28;20388;-63
2023/07/22 05:58:55;;;;;;;38.77;14.87;;;;;;;-145.18;100.00;46631.09;5062544;28;20040;-63
2023/07/22 06:01:20;;;;;;;34.77;16.07;;;;;;;-145.18;100.00;46633.06;5066811;28;20036;-63
2023/07/22 06:03:45;;;;;;;32.83;15.10;;;;;;;-145.18;100.00;46633.06;5072149;28;20551;-63
2023/07/22 06:06:11;;;;;;;28.47;13.77;;;;;;;-145.18;100.00;46635.00;5070078;28;20029;-63
2023/07/22 06:08:36;;;;;;;30.93;14.40;;;;;;;-145.18;100.00;46631.09;5072122;28;20039;-63
2023/07/22 06:11:02;;;;;;;32.03;14.97;;;;;;;-145.18;100.00;46631.09;5069547;28;20033;-63
2023/07/22 06:13:27;;;;;;;29.27;13.50;;;;;;;-145.18;100.00;46631.09;5071390;28;20033;-63
2023/07/22 06:15:52;;;;;;;30.17;14.20;;;;;;;-145.18;100.00;46633.06;5072188;28;20067;-63
2023/07/22 06:18:18;;;;;;;35.57;14.87;;;;;;;-145.18;100.00;46631.09;5072196;28;20553;-63
2023/07/22 06:20:44;;;;;;;26.33;14.23;;;;;;;-145.18;100.00;46631.09;5067424;28;20482;-63
2023/07/22 06:23:09;;;;;;;29.03;13.43;;;;;;;-145.18;100.00;46636.94;5073100;28;20035;-63
2023/07/22 06:25:35;;;;;;;29.53;13.60;;;;;;;-145.18;100.00;46633.06;5067922;28;20596;-63
2023/07/22 06:28:01;;;;;;;31.27;13.90;;;;;;;-145.18;100.00;46635.00;5068764;28;20113;-63
2023/07/22 06:30:27;;;;;;;32.97;15.03;;;;;;;-145.18;100.00;46633.06;5060214;28;20463;-63
2023/07/22 06:32:53;;;;;;;27.30;12.97;;;;;;;-145.18;100.00;46633.06;5061096;28;20065;-63
2023/07/22 06:35:18;;;;;;;28.07;13.53;;;;;;;-145.18;100.00;46636.94;5063951;28;20161;-62
2023/07/22 06:37:44;;;;;;;28.33;13.43;;;;;;;-145.18;100.00;46638.91;5062390;28;21358;-63
2023/07/22 06:40:10;;;;;;;28.00;13.83;;;;;;;-145.18;100.00;46640.88;5067423;28;20044;-63
2023/07/22 06:42:35;;;;;;;23.40;13.30;;;;;;;-145.18;100.00;46636.94;5078521;28;20028;-63
2023/07/22 06:45:01;;;;;;;31.37;14.53;;;;;;;-145.18;100.00;46636.94;5076854;28;20176;-63
2023/07/22 06:47:26;;;;;;;26.17;12.33;;;;;;;-145.18;100.00;46640.88;5075527;28;20562;-64
2023/07/22 06:49:52;;;;;;;30.03;13.80;;;;;;;-145.18;100.00;46640.88;5069575;28;20610;-68
2023/07/22 06:52:17;;;;;;;29.27;14.30;;;;;;;-145.18;100.00;46640.88;5070863;28;20036;-68
2023/07/22 06:54:43;;;;;;;30.23;13.87;;;;;;;-145.18;100.00;46640.88;5067906;28;20044;-68
2023/07/22 06:57:08;;;;;;;28.37;12.93;;;;;;;-145.18;100.00;46646.72;5070454;28;20042;-68
2023/07/22 06:59:34;;;;;;;27.93;13.77;;;;;;;-145.18;100.00;46646.72;5071084;28;20455;-68
2023/07/22 07:01:59;;;;;;;27.73;12.87;;;;;;;-145.18;100.00;46644.78;5052071;28;20033;-68
2023/07/22 07:04:25;;;;;;;28.93;12.97;;;;;;;-145.18;100.00;46644.78;5069004;28;20036;-68
2023/07/22 07:06:50;;;;;;;29.53;12.23;;;;;;;-145.18;100.00;46650.63;5070425;28;20028;-68
2023/07/22 07:09:16;;;;;;;25.87;11.97;;;;;;;-145.18;100.00;46648.69;5082525;28;20400;-68
2023/07/22 07:11:41;;;;;;;25.83;12.60;;;;;;;-145.18;100.00;46648.69;5064509;28;20040;-68
2023/07/22 07:14:06;;;;;;;24.37;11.37;;;;;;;-145.18;100.00;46656.50;5068381;28;20153;-68
2023/07/22 07:16:33;;;;;;;25.60;12.27;;;;;;;-145.18;100.00;46650.63;5075184;28;20033;-68
2023/07/22 07:19:00;;;;;;;26.47;12.13;;;;;;;-145.18;100.00;46652.59;5068122;28;20033;-68
2023/07/22 07:21:26;;;;;;;19.13;10.30;;;;;;;-145.18;100.00;46650.63;5063684;28;20168;-68
2023/07/22 07:23:52;;;;;;;24.27;11.17;;;;;;;-145.18;100.00;46658.44;5069628;28;20125;-68
2023/07/22 07:26:18;;;;;;;24.10;10.80;;;;;;;-145.18;100.00;46664.31;5068945;28;20527;-68
2023/07/22 07:28:44;;;;;;;17.83;9.90;;;;;;;-145.18;100.00;46664.31;5069677;28;20113;-68
2023/07/22 07:31:09;;;;;;;21.10;9.23;;;;;;;-145.18;100.00;46662.34;5058328;28;20090;-68
2023/07/22 07:33:35;;;;;;;21.83;10.33;;;;;;;-145.18;100.00;46666.25;5069618;28;20028;-68
2023/07/22 07:36:01;;;;;;;17.27;10.10;;;;;;;-145.18;100.00;46668.22;5069902;28;20026;-68
2023/07/22 07:38:26;;;;;;;15.27;8.93;;;;;;;-145.18;100.00;46672.13;5070077;28;20048;-68
2023/07/22 07:41:18;;;;;;;20.57;9.23;;;;;;;-145.18;100.00;46672.13;5070543;28;20723;-68
2023/07/22 07:43:44;;;;;;;20.03;8.10;;;;;;;-145.18;100.00;46670.16;5057395;28;20599;-68
2023/07/22 07:46:17;;;;;;;18.37;9.40;;;;;;;-145.18;100.00;46677.97;5070236;28;20185;-68
2023/07/22 07:48:43;;;;;;;19.57;8.50;;;;;;;-145.18;100.00;46677.97;5069289;28;20028;-68
2023/07/22 07:51:08;;;;;;;18.87;9.37;;;;;;;-145.18;100.00;46674.06;5067137;28;20476;-68
2023/07/22 07:53:34;;;;;;;17.63;8.43;;;;;;;-145.18;100.00;46676.03;5068426;28;20032;-68
2023/07/22 07:55:59;;;;;;;17.97;9.60;;;;;;;-145.18;100.00;46668.22;5069522;28;20028;-68
2023/07/22 07:58:27;;;;;;;29.53;8.67;;;;;;;-145.18;100.00;46668.22;5069580;28;20037;-68
2023/07/22 08:00:53;;;;;;;19.43;9.30;;;;;;;-145.18;100.00;46650.63;5068087;28;20036;-64
2023/07/22 08:03:18;;;;;;;17.30;8.87;;;;;;;-145.18;100.00;46642.81;5070002;28;20111;-63
2023/07/22 08:05:43;;;;;;;16.60;9.10;;;;;;;-145.18;100.00;46648.69;5069954;28;20520;-63
2023/07/22 08:08:10;;;;;;;15.87;9.07;;;;;;;-145.18;100.00;46648.69;5072249;28;20033;-63
2023/07/22 08:10:35;;;;;;;22.33;9.83;;;;;;;-145.18;100.00;46656.50;5069894;28;20047;-63
2023/07/22 08:13:01;;;;;;;21.10;10.13;;;;;;;-145.18;100.00;46656.50;5069679;28;20029;-64
2023/07/22 08:15:27;;;;;;;20.57;10.17;;;;;;;-145.18;100.00;46648.69;5068173;28;20025;-63
2023/07/22 08:17:53;;;;;;;21.67;9.10;;;;;;;-145.18;100.00;46650.63;5068055;28;20043;-63
2023/07/22 08:20:19;;;;;;;23.17;9.77;;;;;;;-145.18;100.00;46652.59;5069853;28;20024;-63
2023/07/22 08:22:44;;;;;;;14.80;8.60;;;;;;;-145.18;100.00;46648.69;5069914;28;20480;-63
2023/07/22 08:25:09;;;;;;;16.43;7.80;;;;;;;-145.18;100.00;46633.06;5069459;28;20032;-63
2023/07/22 08:27:35;;;;;;;19.50;10.40;;;;;;;-145.18;100.00;46603.75;5069487;28;20111;-63
2023/07/22 08:30:00;;;;;;;19.07;8.87;;;;;;;-145.18;100.00;46592.03;5069136;28;20052;-63
2023/07/22 08:32:25;;;;;;;16.60;8.47;;;;;;;-145.18;100.00;46580.31;5069226;28;20036;-64
2023/07/22 08:34:51;;;;;;;16.40;8.30;;;;;;;-145.18;100.00;46568.59;5068221;28;20028;-63
2023/07/22 08:37:16;;;;;;;15.80;8.40;;;;;;;-145.18;100.00;46541.25;5074123;28;20028;-63
2023/07/22 08:39:42;;;;;;;15.77;7.80;;;;;;;-145.18;100.00;46552.97;5062527;28;20598;-63
2023/07/22 08:42:08;;;;;;;16.50;8.87;;;;;;;-145.18;100.00;46551.00;5073196;28;20028;-63
2023/07/22 08:44:43;;;;;;;22.93;8.80;;;;;;;-145.18;100.00;46545.16;5071945;28;20392;-63
2023/07/22 08:47:13;;;;;;;15.77;8.90;;;;;;;-145.18;100.00;46549.06;5073197;28;20414;-63
2023/07/22 08:49:41;;;;;;;19.27;7.77;;;;;;;-145.18;100.00;46552.97;5064479;28;20042;-63
2023/07/22 08:52:07;;;;;;;13.67;7.93;;;;;;;-145.18;100.00;46554.91;5071954;28;20063;-63
2023/07/22 08:54:33;;;;;;;15.23;8.23;;;;;;;-145.18;100.00;46547.09;5070551;28;20473;-63
2023/07/22 08:56:58;;;;;;;14.17;7.00;;;;;;;-145.18;100.00;46543.19;5064436;28;20029;-63
2023/07/22 08:59:25;;;;;;;14.17;7.13;;;;;;;-145.18;100.00;46549.06;5075779;28;20039;-63
2023/07/22 09:01:51;;;;;;;11.63;5.60;;;;;;;-145.18;100.00;46554.91;5069732;28;20044;-63
2023/07/22 09:04:19;;;;;;;10.33;5.20;;;;;;;-145.18;100.00;46556.88;5072520;28;20075;-63
2023/07/22 09:06:45;;;;;;;9.07;5.03;;;;;;;-145.18;100.00;46556.88;5073288;28;20033;-63
2023/07/22 09:09:11;;;;;;;11.50;6.10;;;;;;;-145.18;100.00;46554.91;5072618;28;20040;-68
2023/07/22 09:11:37;;;;;;;11.87;5.53;;;;;;;-145.18;100.00;46556.88;5097029;28;20036;-68
2023/07/22 09:14:06;;;;;;;12.17;5.53;;;;;;;-145.18;100.00;46566.63;5072045;28;20111;-68
2023/07/22 09:16:32;;;;;;;8.43;4.73;;;;;;;-145.18;100.00;46552.97;5071858;28;20040;-68
2023/07/22 09:18:58;;;;;;;9.37;5.23;;;;;;;-145.18;100.00;46564.69;5071583;28;20036;-68
2023/07/22 09:21:23;;;;;;;10.90;4.47;;;;;;;-145.18;100.00;46572.50;5071863;28;20088;-68
2023/07/22 09:23:49;;;;;;;9.67;5.13;;;;;;;-145.18;100.00;46576.41;5071163;28;20024;-68
2023/07/22 09:26:17;;;;;;;8.43;4.80;;;;;;;-145.18;100.00;46560.78;5072116;28;20097;-68
2023/07/22 09:28:56;;;;;;;11.63;5.30;;;;;;;-145.18;100.00;46574.44;5071083;28;20049;-67
2023/07/22 09:31:24;;;;;;;16.43;5.43;;;;;;;-145.18;100.00;46582.25;5070361;28;20496;-68
2023/07/22 09:33:50;;;;;;;11.20;5.30;;;;;;;-145.18;100.00;46576.41;5072928;28;20070;-68
2023/07/22 09:36:16;;;;;;;8.07;3.93;;;;;;;-145.18;100.00;46554.91;5071290;28;20311;-68
2023/07/22 09:38:41;;;;;;;7.00;4.30;;;;;;;-145.18;100.00;46572.50;5070343;28;20071;-68
2023/07/22 09:41:08;;;;;;;7.73;4.10;;;;;;;-145.18;100.00;46652.59;5069743;28;20186;-68
2023/07/22 09:43:40;;;;;;;8.57;4.10;;;;;;;-145.18;100.00;47219.09;5068283;28;20020;-68
2023/07/22 09:46:14;;;;;;;5.17;3.50;;;;;;;-145.18;100.00;47246.44;5067023;28;20131;-67
2023/07/22 09:48:45;;;;;;;8.37;3.93;;;;;;;-145.18;100.00;47226.91;5067100;28;20115;-68
2023/07/22 09:51:16;;;;;;;8.40;4.33;;;;;;;-145.18;100.00;47152.66;5069843;28;20032;-67
2023/07/22 09:54:00;;;;;;;8.60;3.70;;;;;;;-145.18;100.00;47164.38;5071007;28;20620;-68
2023/07/22 09:56:25;;;;;;;7.80;3.93;;;;;;;-145.18;100.00;47117.50;5070518;28;20119;-68
2023/07/22 09:58:52;;;;;;;7.53;4.13;;;;;;;-145.18;100.00;47123.38;5070413;28;20645;-67
2023/07/22 10:01:23;;;;;;;7.80;4.10;;;;;;;-145.18;100.00;46777.59;5066960;28;20046;-67
2023/07/22 10:03:54;;;;;;;7.40;3.87;;;;;;;-145.18;100.00;46644.78;5070730;28;20721;-68
2023/07/22 10:06:23;;;;;;;10.43;4.53;;;;;;;-145.18;100.00;46640.88;5070111;28;20044;-67
2023/07/22 10:08:48;;;;;;;8.20;4.20;;;;;;;-145.18;100.00;46638.91;5074418;28;20031;-68
2023/07/22 10:11:15;;;;;;;6.20;3.43;;;;;;;-145.18;100.00;46650.63;5070983;28;20090;-67
2023/07/22 10:13:41;;;;;;;9.93;3.53;;;;;;;-145.18;100.00;46668.22;5069307;28;20101;-67
2023/07/22 10:16:07;;;;;;;9.40;4.23;;;;;;;-145.18;100.00;46613.50;5071871;28;20090;-66
2023/07/22 10:18:34;;;;;;;7.37;3.87;;;;;;;-145.18;100.00;46613.50;5071568;28;20041;-65
2023/07/22 10:21:00;;;;;;;7.27;4.30;;;;;;;-145.18;100.00;46625.22;5075822;28;20036;-62
2023/07/22 10:23:26;;;;;;;8.87;4.90;;;;;;;-145.18;100.00;46648.69;5073033;28;20086;-62
2023/07/22 10:25:54;;;;;;;5.13;4.20;;;;;;;-145.18;100.00;46609.59;5073383;28;20112;-62
2023/07/22 10:28:20;;;;;;;7.03;4.70;;;;;;;-145.18;100.00;46627.19;5070156;28;20028;-62
2023/07/22 10:30:46;;;;;;;8.60;5.03;;;;;;;-145.18;100.00;46611.56;5070860;28;20373;-62
2023/07/22 10:33:11;;;;;;;8.83;4.73;;;;;;;-145.18;100.00;46633.06;5070775;28;20035;-62
2023/07/22 10:35:42;;;;;;;8.17;4.87;;;;;;;-145.18;100.00;46617.41;5071312;28;20541;-62
2023/07/22 10:38:12;;;;;;;9.23;4.77;;;;;;;-145.18;100.00;46625.22;5071784;28;20028;-62
2023/07/22 10:40:52;;;;;;;8.73;6.10;;;;;;;-145.18;100.00;46603.75;5074325;28;20059;-62
2023/07/22 10:43:24;;;;;;;8.50;5.10;;;;;;;-145.18;100.00;46638.91;5069613;28;20480;-62
2023/07/22 10:45:51;;;;;;;9.43;4.80;;;;;;;-145.18;100.00;46824.47;5069913;28;20024;-62
2023/07/22 10:48:17;;;;;;;7.60;5.67;;;;;;;-145.18;100.00;47025.69;5072677;28;20391;-62
2023/07/22 10:50:47;;;;;;;6.37;5.13;;;;;;;-145.18;100.00;47127.28;5071627;28;20040;-62
2023/07/22 10:53:20;;;;;;;7.43;5.07;;;;;;;-145.18;100.00;47176.09;5069819;28;20035;-62
2023/07/22 10:56:07;;;;;;;7.70;5.40;;;;;;;-145.18;100.00;47176.09;5067801;28;20082;-62